createdAt,value
2023-02-19T00:01:47.281Z,97480.05
2023-02-19T00:04:19.652Z,97475.44
2023-02-19T00:06:48.256Z,97480.93
2023-02-19T00:09:17.429Z,97476.40
2023-02-19T00:11:46.623Z,97471.53
2023-02-19T00:14:15.761Z,97470.18
2023-02-19T00:16:44.003Z,97471.06
2023-02-19T00:19:13.173Z,97471.46
2023-02-19T00:21:41.169Z,97469.14
2023-02-19T00:24:11.492Z,97472.22
2023-02-19T00:26:40.963Z,97475.27
2023-02-19T00:29:09.816Z,97470.72
2023-02-19T00:31:37.918Z,97468.25
2023-02-19T00:34:06.510Z,97467.05
2023-02-19T00:36:36.775Z,97465.59
2023-02-19T00:39:05.144Z,97467.14
2023-02-19T00:41:33.232Z,97459.27
2023-02-19T00:44:02.519Z,97459.24
2023-02-19T00:46:31.944Z,97459.08
2023-02-19T00:49:00.308Z,97459.66
2023-02-19T00:51:29.704Z,97458.18
2023-02-19T00:53:58.390Z,97455.20
2023-02-19T00:56:26.872Z,97452.98
2023-02-19T00:58:54.805Z,97453.55
2023-02-19T01:01:22.849Z,97455.01
2023-02-19T01:03:52.365Z,97458.85
2023-02-19T01:06:20.693Z,97456.66
2023-02-19T01:08:49.175Z,97460.35
2023-02-19T01:11:18.074Z,97462.42
2023-02-19T01:13:46.040Z,97465.92
2023-02-19T01:16:15.794Z,97467.77
2023-02-19T01:18:44.431Z,97466.13
2023-02-19T01:21:13.830Z,97468.45
2023-02-19T01:23:42.431Z,97470.94
2023-02-19T01:26:12.958Z,97476.02
2023-02-19T01:28:40.894Z,97477.67
2023-02-19T01:31:12.309Z,97478.77
2023-02-19T01:33:40.642Z,97480.67
2023-02-19T01:36:08.821Z,97478.92
2023-02-19T01:38:36.789Z,97478.67
2023-02-19T01:41:06.645Z,97479.09
2023-02-19T01:43:53.614Z,97482.63
2023-02-19T01:46:21.637Z,97481.23
2023-02-19T01:48:49.768Z,97479.74
2023-02-19T01:51:19.990Z,97480.55
2023-02-19T01:53:49.692Z,97480.50
2023-02-19T01:56:18.998Z,97478.57
2023-02-19T01:58:47.172Z,97481.53
2023-02-19T02:01:15.474Z,97482.10
2023-02-19T02:03:45.358Z,97482.60
2023-02-19T02:06:39.652Z,97482.99
2023-02-19T02:09:26.268Z,97481.31
2023-02-19T02:11:54.534Z,97481.58
2023-02-19T02:14:25.887Z,97479.41
2023-02-19T02:17:10.148Z,97478.42
2023-02-19T02:19:57.255Z,97480.67
2023-02-19T02:22:44.886Z,97484.80
2023-02-19T02:25:28.833Z,97488.08
2023-02-19T02:28:15.844Z,97490.11
2023-02-19T02:30:45.552Z,97496.86
2023-02-19T02:33:31.748Z,97502.92
2023-02-19T02:36:07.119Z,97509.60
2023-02-19T02:38:37.826Z,97512.94
2023-02-19T02:41:06.754Z,97513.35
2023-02-19T02:43:35.199Z,97517.19
2023-02-19T02:46:04.633Z,97523.23
2023-02-19T02:48:37.182Z,97528.60
2023-02-19T02:51:24.111Z,97535.10
2023-02-19T02:54:20.634Z,97537.28
2023-02-19T02:56:50.395Z,97542.27
2023-02-19T02:59:20.456Z,97548.02
2023-02-19T03:02:14.548Z,97556.72
2023-02-19T03:05:04.632Z,97567.05
2023-02-19T03:07:39.151Z,97574.01
2023-02-19T03:10:10.611Z,97579.58
2023-02-19T03:12:59.379Z,97586.59
2023-02-19T03:15:48.633Z,97590.35
2023-02-19T03:18:37.104Z,97593.59
2023-02-19T03:21:07.376Z,97600.05
2023-02-19T03:23:54.520Z,97599.39
2023-02-19T03:26:22.799Z,97606.61
2023-02-19T03:29:12.028Z,97601.90
2023-02-19T03:31:43.270Z,97604.91
2023-02-19T03:34:14.861Z,97607.31
2023-02-19T03:36:45.768Z,97597.23
2023-02-19T03:39:15.932Z,97596.45
2023-02-19T03:41:47.074Z,97595.06
2023-02-19T03:44:18.229Z,97591.26
2023-02-19T03:47:10.152Z,97593.80
2023-02-19T03:49:43.848Z,97590.27
2023-02-19T03:52:17.000Z,97594.30
2023-02-19T03:54:51.156Z,97600.55
2023-02-19T03:57:22.206Z,97604.68
2023-02-19T03:59:59.489Z,97605.68
2023-02-19T04:02:41.762Z,97605.13
2023-02-19T04:05:09.961Z,97607.41
2023-02-19T04:07:41.640Z,97609.79
2023-02-19T04:10:10.306Z,97609.69
2023-02-19T04:12:43.810Z,97608.69
2023-02-19T04:15:14.757Z,97613.23
2023-02-19T04:17:46.118Z,97614.32
2023-02-19T04:20:14.478Z,97613.92
2023-02-19T04:22:42.653Z,97609.12
2023-02-19T04:25:11.036Z,97605.86
2023-02-19T04:27:39.115Z,97609.44
2023-02-19T04:30:08.851Z,97608.48
2023-02-19T04:32:36.875Z,97609.95
2023-02-19T04:35:05.066Z,97612.37
2023-02-19T04:37:33.016Z,97614.08
2023-02-19T04:40:00.998Z,97610.88
2023-02-19T04:42:28.960Z,97611.95
2023-02-19T04:44:56.824Z,97616.77
2023-02-19T04:47:24.774Z,97616.73
2023-02-19T04:49:52.971Z,97617.35
2023-02-19T04:52:20.838Z,97619.11
2023-02-19T04:54:49.003Z,97622.77
2023-02-19T04:57:16.877Z,97621.32
2023-02-19T04:59:46.141Z,97622.77
2023-02-19T05:02:14.064Z,97629.06
2023-02-19T05:04:42.061Z,97629.31
2023-02-19T05:07:10.182Z,97628.27
2023-02-19T05:09:38.162Z,97627.48
2023-02-19T05:12:06.150Z,97629.94
2023-02-19T05:14:34.097Z,97631.17
2023-02-19T05:17:02.172Z,97631.91
2023-02-19T05:19:30.133Z,97629.67
2023-02-19T05:21:58.108Z,97629.23
2023-02-19T05:24:27.713Z,97633.02
2023-02-19T05:26:55.890Z,97634.10
2023-02-19T05:29:23.711Z,97629.83
2023-02-19T05:31:51.867Z,97629.32
2023-02-19T05:34:21.330Z,97634.16
2023-02-19T05:36:49.302Z,97639.12
2023-02-19T05:39:17.167Z,97637.23
2023-02-19T05:41:45.148Z,97634.48
2023-02-19T05:44:12.984Z,97631.81
2023-02-19T05:46:40.994Z,97627.52
2023-02-19T05:49:08.944Z,97625.62
2023-02-19T05:51:36.868Z,97623.23
2023-02-19T05:54:04.880Z,97631.66
2023-02-19T05:56:42.585Z,97632.13
2023-02-19T05:59:17.925Z,97636.38
2023-02-19T06:01:46.094Z,97639.23
2023-02-19T06:04:14.888Z,97641.16
2023-02-19T06:06:43.266Z,97640.28
2023-02-19T06:09:11.536Z,97639.05
2023-02-19T06:11:40.046Z,97641.48
2023-02-19T06:14:07.990Z,97639.48
2023-02-19T06:16:35.958Z,97642.40
2023-02-19T06:19:04.652Z,97638.23
2023-02-19T06:21:32.627Z,97644.29
2023-02-19T06:24:04.577Z,97639.30
2023-02-19T06:26:32.582Z,97633.55
2023-02-19T06:29:00.522Z,97631.26
2023-02-19T06:31:28.676Z,97630.53
2023-02-19T06:33:56.784Z,97626.35
2023-02-19T06:36:25.147Z,97625.20
2023-02-19T06:38:53.247Z,97619.23
2023-02-19T06:41:21.360Z,97613.98
2023-02-19T06:43:49.363Z,97612.03
2023-02-19T06:46:17.343Z,97606.85
2023-02-19T06:48:45.578Z,97597.36
2023-02-19T06:51:15.424Z,97589.52
2023-02-19T06:53:43.390Z,97583.46
2023-02-19T06:56:26.224Z,97582.38
2023-02-19T06:58:55.308Z,97581.88
2023-02-19T07:01:23.685Z,97584.95
2023-02-19T07:03:52.839Z,97586.77
2023-02-19T07:06:21.954Z,97580.65
2023-02-19T07:08:50.470Z,97580.27
2023-02-19T07:11:19.028Z,97578.34
2023-02-19T07:13:47.073Z,97585.44
2023-02-19T07:16:15.503Z,97587.63
2023-02-19T07:18:43.558Z,97585.88
2023-02-19T07:21:13.304Z,97583.52
2023-02-19T07:23:42.373Z,97583.23
2023-02-19T07:26:14.222Z,97576.23
2023-02-19T07:28:43.025Z,97572.39
2023-02-19T07:31:11.887Z,97576.44
2023-02-19T07:33:40.286Z,97567.80
2023-02-19T07:36:08.669Z,97563.47
2023-02-19T07:38:36.644Z,97569.39
2023-02-19T07:41:05.998Z,97568.77
2023-02-19T07:43:35.444Z,97571.09
2023-02-19T07:46:13.444Z,97570.70
2023-02-19T07:48:42.861Z,97569.58
2023-02-19T07:51:12.942Z,97570.52
2023-02-19T07:53:41.139Z,97570.20
2023-02-19T07:56:10.775Z,97573.23
2023-02-19T07:58:38.917Z,97576.44
2023-02-19T08:01:17.605Z,97574.70
2023-02-19T08:03:45.950Z,97582.57
2023-02-19T08:06:14.003Z,97580.40
2023-02-19T08:08:41.977Z,97581.65
2023-02-19T08:11:28.766Z,97587.39
2023-02-19T08:13:56.750Z,97587.24
2023-02-19T08:16:40.871Z,97587.80
2023-02-19T08:19:10.938Z,97593.85
2023-02-19T08:21:39.011Z,97593.69
2023-02-19T08:24:07.165Z,97600.51
2023-02-19T08:26:35.440Z,97603.59
2023-02-19T08:29:04.118Z,97594.67
2023-02-19T08:31:32.972Z,97593.75
2023-02-19T08:34:01.094Z,97594.33
2023-02-19T08:36:29.158Z,97593.53
2023-02-19T08:38:57.119Z,97598.52
2023-02-19T08:41:25.088Z,97602.34
2023-02-19T08:43:53.174Z,97597.52
2023-02-19T08:46:22.846Z,97595.21
2023-02-19T08:48:51.250Z,97601.70
2023-02-19T08:51:19.343Z,97594.14
2023-02-19T08:53:47.299Z,97585.29
2023-02-19T08:56:16.387Z,97576.33
2023-02-19T08:58:44.578Z,97570.64
2023-02-19T09:01:14.559Z,97561.16
2023-02-19T09:03:42.956Z,97560.58
2023-02-19T09:06:15.948Z,97555.13
2023-02-19T09:08:43.790Z,97553.83
2023-02-19T09:11:12.334Z,97557.38
2023-02-19T09:13:40.774Z,97566.22
2023-02-19T09:16:08.875Z,97564.30
2023-02-19T09:18:37.141Z,97562.65
2023-02-19T09:21:06.028Z,97562.21
2023-02-19T09:23:34.694Z,97549.60
2023-02-19T09:26:06.905Z,97546.33
2023-02-19T09:28:35.088Z,97548.02
2023-02-19T09:31:06.501Z,97550.02
2023-02-19T09:33:34.665Z,97554.70
2023-02-19T09:36:03.474Z,97556.57
2023-02-19T09:38:31.532Z,97551.75
2023-02-19T09:41:00.218Z,97556.05
2023-02-19T09:43:30.037Z,97554.09
2023-02-19T09:46:09.338Z,97562.48
2023-02-19T09:48:37.653Z,97560.45
2023-02-19T09:51:08.122Z,97555.65
2023-02-19T09:53:40.956Z,97556.77
2023-02-19T09:56:08.974Z,97552.80
2023-02-19T09:58:57.175Z,97557.80
2023-02-19T10:01:27.235Z,97553.70
2023-02-19T10:03:55.255Z,97559.23
2023-02-19T10:06:24.758Z,97556.80
2023-02-19T10:08:55.387Z,97554.45
2023-02-19T10:11:26.026Z,97553.02
2023-02-19T10:14:02.388Z,97553.65
2023-02-19T10:16:30.390Z,97543.85
2023-02-19T10:18:58.332Z,97535.58
2023-02-19T10:21:27.942Z,97534.84
2023-02-19T10:23:58.107Z,97534.04
2023-02-19T10:29:54.648Z,97520.94
2023-02-19T10:32:24.551Z,97513.73
2023-02-19T10:35:18.942Z,97514.83
2023-02-19T10:37:49.161Z,97514.42
2023-02-19T10:40:20.932Z,97507.11
2023-02-19T10:42:50.324Z,97503.79
2023-02-19T10:45:44.511Z,97503.82
2023-02-19T10:48:21.914Z,97501.00
2023-02-19T10:50:56.118Z,97494.98
2023-02-19T10:53:35.485Z,97496.23
2023-02-19T10:56:11.976Z,97493.95
2023-02-19T10:58:42.496Z,97490.04
2023-02-19T11:01:29.511Z,97491.45
2023-02-19T11:04:23.362Z,97491.68
2023-02-19T11:06:51.716Z,97481.39
2023-02-19T11:09:25.995Z,97473.05
2023-02-19T11:11:55.318Z,97462.64
2023-02-19T11:14:24.493Z,97465.23
2023-02-19T11:16:52.609Z,97471.39
2023-02-19T11:19:25.836Z,97472.16
2023-02-19T11:21:54.126Z,97474.20
2023-02-19T11:24:37.403Z,97469.20
2023-02-19T11:27:07.213Z,97464.70
2023-02-19T11:29:35.692Z,97462.53
2023-02-19T11:32:32.953Z,97454.55
2023-02-19T11:35:19.058Z,97448.25
2023-02-19T11:37:54.119Z,97445.05
2023-02-19T11:40:25.024Z,97442.08
2023-02-19T11:43:00.226Z,97435.91
2023-02-19T11:45:31.311Z,97438.98
2023-02-19T11:48:30.268Z,97447.51
2023-02-19T11:51:15.168Z,97448.44
2023-02-19T11:53:49.647Z,97441.17
2023-02-19T11:56:24.038Z,97436.80
2023-02-19T11:58:51.864Z,97437.53
2023-02-19T12:01:23.021Z,97435.88
2023-02-19T12:04:09.731Z,97434.66
2023-02-19T12:06:40.770Z,97433.05
2023-02-19T12:09:18.732Z,97434.68
2023-02-19T12:11:53.680Z,97438.77
2023-02-19T12:14:21.680Z,97445.19
2023-02-19T12:17:08.391Z,97448.55
2023-02-19T12:19:55.101Z,97445.72
2023-02-19T12:22:26.028Z,97441.96
2023-02-19T12:25:12.498Z,97438.67
2023-02-19T12:27:47.080Z,97436.49
2023-02-19T12:30:31.951Z,97433.64
2023-02-19T12:33:13.236Z,97437.15
2023-02-19T12:35:48.010Z,97439.01
2023-02-19T12:38:23.481Z,97437.52
2023-02-19T12:40:57.115Z,97437.39
2023-02-19T12:43:25.367Z,97432.27
2023-02-19T12:46:01.998Z,97431.05
2023-02-19T12:48:32.984Z,97431.11
2023-02-19T12:51:05.859Z,97424.97
2023-02-19T12:53:33.926Z,97423.24
2023-02-19T12:56:05.593Z,97418.66
2023-02-19T12:58:39.741Z,97421.07
2023-02-19T13:01:10.180Z,97413.81
2023-02-19T13:03:41.481Z,97407.34
2023-02-19T13:06:15.898Z,97405.64
2023-02-19T13:09:10.191Z,97400.66
2023-02-19T13:11:47.277Z,97398.34
2023-02-19T13:14:18.409Z,97396.23
2023-02-19T13:16:50.845Z,97400.06
2023-02-19T13:19:18.891Z,97401.25
2023-02-19T13:22:09.872Z,97403.78
2023-02-19T13:24:41.008Z,97402.17
2023-02-19T13:27:09.704Z,97395.22
2023-02-19T13:29:37.668Z,97393.55
2023-02-19T13:32:05.708Z,97395.23
2023-02-19T13:34:48.379Z,97395.65
2023-02-19T13:37:16.861Z,97396.09
2023-02-19T13:39:50.234Z,97388.44
2023-02-19T13:42:29.063Z,97381.70
2023-02-19T13:44:58.589Z,97381.15
2023-02-19T13:47:45.481Z,97381.03
2023-02-19T13:50:22.855Z,97380.21
2023-02-19T13:53:00.884Z,97379.89
2023-02-19T13:55:46.245Z,97382.44
2023-02-19T13:58:33.061Z,97388.41
2023-02-19T14:01:02.353Z,97390.89
2023-02-19T14:03:39.763Z,97391.75
2023-02-19T14:06:08.734Z,97386.15
2023-02-19T14:09:02.831Z,97377.03
2023-02-19T14:11:42.974Z,97376.38
2023-02-19T14:14:23.408Z,97377.44
2023-02-19T14:16:54.583Z,97376.08
2023-02-19T14:19:41.086Z,97376.11
2023-02-19T14:22:27.805Z,97380.48
2023-02-19T14:24:56.164Z,97381.42
2023-02-19T14:27:25.510Z,97383.38
2023-02-19T14:29:53.586Z,97383.41
2023-02-19T14:32:21.842Z,97384.88
2023-02-19T14:34:49.898Z,97393.23
2023-02-19T14:37:19.810Z,97407.80
2023-02-19T14:39:48.189Z,97415.99
2023-02-19T14:42:17.714Z,97426.11
2023-02-19T14:44:48.532Z,97429.30
2023-02-19T14:47:18.756Z,97424.02
2023-02-19T14:49:47.027Z,97424.90
2023-02-19T14:52:21.141Z,97433.14
2023-02-19T14:54:52.071Z,97427.68
2023-02-19T14:57:25.616Z,97422.44
2023-02-19T14:59:55.409Z,97411.66
2023-02-19T15:02:26.168Z,97412.74
2023-02-19T15:04:54.868Z,97415.83
2023-02-19T15:07:29.851Z,97413.98
2023-02-19T15:10:04.988Z,97409.32
2023-02-19T15:12:35.307Z,97400.92
2023-02-19T15:15:04.906Z,97385.71
2023-02-19T15:17:34.517Z,97373.94
2023-02-19T15:20:09.448Z,97371.92
2023-02-19T15:22:40.058Z,97368.34
2023-02-19T15:25:08.569Z,97366.91
2023-02-19T15:27:37.565Z,97366.22
2023-02-19T15:30:16.624Z,97366.17
2023-02-19T15:32:51.923Z,97364.10
2023-02-19T15:35:21.483Z,97369.81
2023-02-19T15:37:50.028Z,97365.94
2023-02-19T15:40:19.942Z,97363.89
2023-02-19T15:42:48.008Z,97362.58
2023-02-19T15:45:15.878Z,97359.10
2023-02-19T15:47:49.224Z,97354.69
2023-02-19T15:50:28.714Z,97353.54
2023-02-19T15:53:03.853Z,97347.14
2023-02-19T15:55:34.902Z,97341.12
2023-02-19T15:58:02.861Z,97343.73
2023-02-19T16:00:48.759Z,97347.66
2023-02-19T16:03:19.282Z,97345.11
2023-02-19T16:05:57.800Z,97347.07
2023-02-19T16:08:30.947Z,97345.36
2023-02-19T16:11:00.498Z,97347.69
2023-02-19T16:13:30.106Z,97345.04
2023-02-19T16:16:04.045Z,97347.69
2023-02-19T16:18:32.396Z,97346.52
2023-02-19T16:21:01.493Z,97346.61
2023-02-19T16:23:29.389Z,97343.07
2023-02-19T16:26:02.242Z,97345.64
2023-02-19T16:28:34.966Z,97356.15
2023-02-19T16:31:04.772Z,97366.58
2023-02-19T16:33:33.135Z,97381.23
2023-02-19T16:36:20.398Z,97388.45
2023-02-19T16:39:09.814Z,97387.50
2023-02-19T16:41:57.747Z,97390.74
2023-02-19T16:44:28.492Z,97393.02
2023-02-19T16:47:13.893Z,97384.98
2023-02-19T16:49:42.958Z,97381.21
2023-02-19T16:52:15.735Z,97385.76
2023-02-19T16:54:43.700Z,97390.98
2023-02-19T16:57:11.770Z,97381.35
2023-02-19T16:59:39.793Z,97388.70
2023-02-19T17:02:10.474Z,97381.36
2023-02-19T17:04:39.568Z,97377.60
2023-02-19T17:07:09.074Z,97385.38
2023-02-19T17:09:37.042Z,97386.31
2023-02-19T17:12:05.944Z,97390.50
2023-02-19T17:14:33.902Z,97396.14
2023-02-19T17:17:02.493Z,97400.69
2023-02-19T17:19:30.672Z,97408.78
2023-02-19T17:21:58.980Z,97410.16
2023-02-19T17:24:26.818Z,97397.21
2023-02-19T17:26:54.779Z,97381.50
2023-02-19T17:29:22.958Z,97381.75
2023-02-19T17:31:51.674Z,97385.13
2023-02-19T17:34:19.720Z,97383.84
2023-02-19T17:36:48.390Z,97384.92
2023-02-19T17:39:18.618Z,97389.65
2023-02-19T17:41:46.695Z,97386.86
2023-02-19T17:44:14.861Z,97376.64
2023-02-19T17:46:42.826Z,97384.42
2023-02-19T17:49:12.564Z,97378.45
2023-02-19T17:51:40.551Z,97377.48
2023-02-19T17:54:09.643Z,97381.02
2023-02-19T17:56:40.152Z,97381.59
2023-02-19T17:59:08.048Z,97377.98
2023-02-19T18:01:36.119Z,97375.91
2023-02-19T18:04:04.386Z,97372.20
2023-02-19T18:06:32.426Z,97372.24
2023-02-19T18:09:00.392Z,97384.98
2023-02-19T18:11:28.461Z,97392.00
2023-02-19T18:13:56.750Z,97390.45
2023-02-19T18:16:24.741Z,97407.29
2023-02-19T18:18:53.299Z,97420.79
2023-02-19T18:21:23.645Z,97412.90
2023-02-19T18:23:51.671Z,97398.55
2023-02-19T18:26:20.920Z,97387.75
2023-02-19T18:28:48.860Z,97386.20
2023-02-19T18:31:16.796Z,97384.50
2023-02-19T18:33:45.149Z,97379.66
2023-02-19T18:36:13.390Z,97374.71
2023-02-19T18:38:42.271Z,97365.51
2023-02-19T18:41:14.094Z,97356.17
2023-02-19T18:43:42.424Z,97361.23
2023-02-19T18:46:10.928Z,97369.62
2023-02-19T18:48:38.998Z,97379.05
2023-02-19T18:51:10.910Z,97373.58
2023-02-19T18:53:39.236Z,97368.17
2023-02-19T18:56:09.114Z,97364.55
2023-02-19T18:58:37.081Z,97435.78
2023-02-19T19:01:05.192Z,97490.73
2023-02-19T19:03:33.224Z,97504.30
2023-02-19T19:06:01.249Z,97511.54
2023-02-19T19:08:30.675Z,97509.80
2023-02-19T19:10:58.786Z,97509.64
2023-02-19T19:13:26.763Z,97524.55
2023-02-19T19:15:54.954Z,97533.91
2023-02-19T19:18:25.350Z,97537.40
2023-02-19T19:20:56.817Z,97546.80
2023-02-19T19:23:24.771Z,97551.66
2023-02-19T19:25:54.682Z,97556.48
2023-02-19T19:28:23.368Z,97564.88
2023-02-19T19:30:51.589Z,97568.63
2023-02-19T19:33:20.355Z,97568.27
2023-02-19T19:35:48.541Z,97564.87
2023-02-19T19:38:16.767Z,97559.42
2023-02-19T19:40:46.597Z,97558.75
2023-02-19T19:43:15.279Z,97560.56
2023-02-19T19:45:43.257Z,97560.21
2023-02-19T19:48:11.445Z,97558.02
2023-02-19T19:50:39.498Z,97552.77
2023-02-19T19:53:07.465Z,97549.69
2023-02-19T19:55:35.343Z,97553.04
2023-02-19T19:58:03.307Z,97551.64
2023-02-19T20:00:31.292Z,97548.20
2023-02-19T20:02:59.477Z,97546.56
2023-02-19T20:05:27.459Z,97545.96
2023-02-19T20:07:55.386Z,97550.36
2023-02-19T20:10:23.451Z,97551.27
2023-02-19T20:12:51.423Z,97556.38
2023-02-19T20:15:20.840Z,97568.19
2023-02-19T20:17:49.452Z,97573.41
2023-02-19T20:20:21.569Z,97568.40
2023-02-19T20:22:50.157Z,97562.52
2023-02-19T20:25:19.152Z,97558.02
2023-02-19T20:27:50.914Z,97554.63
2023-02-19T20:30:20.343Z,97551.83
2023-02-19T20:32:48.392Z,97558.96
2023-02-19T20:35:17.276Z,97560.17
2023-02-19T20:37:48.008Z,97565.77
2023-02-19T20:40:17.627Z,97570.13
2023-02-19T20:42:45.588Z,97556.67
2023-02-19T20:45:16.851Z,97541.12
2023-02-19T20:47:44.829Z,97536.89
2023-02-19T20:50:12.984Z,97538.27
2023-02-19T20:52:40.944Z,97548.55
2023-02-19T20:55:09.536Z,97543.47
2023-02-19T20:57:38.015Z,97544.38
2023-02-19T21:00:06.929Z,97555.62
2023-02-19T21:02:35.211Z,97562.39
2023-02-19T21:05:03.468Z,97564.48
2023-02-19T21:07:31.568Z,97571.20
2023-02-19T21:09:59.620Z,97581.25
2023-02-19T21:12:27.573Z,97591.45
2023-02-19T21:14:55.536Z,97591.40
2023-02-19T21:17:23.432Z,97590.40
2023-02-19T21:19:51.376Z,97590.23
2023-02-19T21:22:19.346Z,97588.65
2023-02-19T21:24:52.067Z,97595.16
2023-02-19T21:27:20.711Z,97595.58
2023-02-19T21:29:48.684Z,97590.16
2023-02-19T21:32:16.761Z,97582.61
2023-02-19T21:34:44.983Z,97592.35
2023-02-19T21:37:13.104Z,97608.20
2023-02-19T21:39:42.919Z,97614.65
2023-02-19T21:42:10.995Z,97623.02
2023-02-19T21:44:38.979Z,97631.11
2023-02-19T21:47:07.028Z,97632.53
2023-02-19T21:49:35.105Z,97631.25
2023-02-19T21:52:02.993Z,97636.17
2023-02-19T21:54:30.916Z,97629.55
2023-02-19T21:57:01.677Z,97623.45
2023-02-19T21:59:29.737Z,97623.55
2023-02-19T22:01:57.909Z,97623.86
2023-02-19T22:04:25.796Z,97629.45
2023-02-19T22:06:56.753Z,97629.89
2023-02-19T22:09:24.934Z,97632.00
2023-02-19T22:11:53.173Z,97637.17
2023-02-19T22:14:21.039Z,97641.98
2023-02-19T22:16:49.049Z,97646.85
2023-02-19T22:19:17.184Z,97649.65
2023-02-19T22:21:45.348Z,97645.89
2023-02-19T22:24:17.665Z,97644.48
2023-02-19T22:26:46.276Z,97645.49
2023-02-19T22:29:15.304Z,97654.25
2023-02-19T22:31:43.790Z,97662.62
2023-02-19T22:34:12.264Z,97667.84
2023-02-19T22:36:40.647Z,97665.40
2023-02-19T22:39:14.844Z,97665.68
2023-02-19T22:41:43.135Z,97664.20
2023-02-19T22:44:11.354Z,97667.61
2023-02-19T22:46:39.278Z,97670.45
2023-02-19T22:49:07.865Z,97668.17
2023-02-19T22:51:35.830Z,97673.52
2023-02-19T22:54:03.843Z,97675.77
2023-02-19T22:56:31.878Z,97679.75
2023-02-19T22:59:00.057Z,97682.58
2023-02-19T23:01:28.036Z,97691.41
2023-02-19T23:03:57.707Z,97693.73
2023-02-19T23:06:30.322Z,97689.34
2023-02-19T23:08:58.993Z,97689.45
2023-02-19T23:11:28.810Z,97691.35
2023-02-19T23:13:57.189Z,97697.02
2023-02-19T23:16:25.603Z,97703.56
2023-02-19T23:18:53.644Z,97711.57
2023-02-19T23:21:22.852Z,97711.37
2023-02-19T23:23:51.018Z,97712.13
2023-02-19T23:26:19.703Z,97714.32
2023-02-19T23:28:47.774Z,97716.41
2023-02-19T23:31:16.377Z,97717.36
2023-02-19T23:33:45.359Z,97722.14
2023-02-19T23:36:14.124Z,97735.15
2023-02-19T23:38:46.511Z,97739.23
2023-02-19T23:41:15.231Z,97748.55
2023-02-19T23:43:43.363Z,97759.00
2023-02-19T23:46:17.387Z,97764.42
2023-02-19T23:48:46.493Z,97771.08
2023-02-19T23:51:14.856Z,97776.71
2023-02-19T23:53:42.722Z,97782.06
2023-02-19T23:56:11.074Z,97792.40
2023-02-19T23:58:39.573Z,97797.80
